sensor_id;sensor_type;location;lat;lon;timestamp;P1;durP1;ratioP1;P2;durP2;ratioP2
8359;SDS011;4217;48.762;11.428;2022-10-16T00:02:09;8.13;;;7.40;;
8359;SDS011;4217;48.762;11.428;2022-10-16T00:12:10;5.23;;;4.83;;
8359;SDS011;4217;48.762;11.428;2022-10-16T00:22:13;4.33;;;3.53;;
8359;SDS011;4217;48.762;11.428;2022-10-16T00:32:14;3.67;;;3.40;;
8359;SDS011;4217;48.762;11.428;2022-10-16T00:42:16;3.70;;;3.40;;
8359;SDS011;4217;48.762;11.428;2022-10-16T00:52:18;4.00;;;3.70;;
8359;SDS011;4217;48.762;11.428;2022-10-16T01:02:23;4.00;;;3.67;;
8359;SDS011;4217;48.762;11.428;2022-10-16T01:12:32;4.57;;;3.43;;
8359;SDS011;4217;48.762;11.428;2022-10-16T01:33:24;3.87;;;3.50;;
8359;SDS011;4217;48.762;11.428;2022-10-16T01:43:33;3.57;;;3.37;;
8359;SDS011;4217;48.762;11.428;2022-10-16T01:53:39;3.10;;;2.80;;
8359;SDS011;4217;48.762;11.428;2022-10-16T02:03:45;3.77;;;3.47;;
8359;SDS011;4217;48.762;11.428;2022-10-16T02:13:48;3.50;;;3.20;;
8359;SDS011;4217;48.762;11.428;2022-10-16T02:23:55;2.83;;;2.50;;
8359;SDS011;4217;48.762;11.428;2022-10-16T02:33:58;2.83;;;2.63;;
8359;SDS011;4217;48.762;11.428;2022-10-16T02:44:01;3.47;;;3.00;;
8359;SDS011;4217;48.762;11.428;2022-10-16T02:54:02;3.00;;;2.50;;
8359;SDS011;4217;48.762;11.428;2022-10-16T03:04:04;2.73;;;2.53;;
8359;SDS011;4217;48.762;11.428;2022-10-16T03:14:06;3.63;;;3.43;;
8359;SDS011;4217;48.762;11.428;2022-10-16T03:24:08;2.90;;;2.70;;
8359;SDS011;4217;48.762;11.428;2022-10-16T03:34:09;3.80;;;3.50;;
8359;SDS011;4217;48.762;11.428;2022-10-16T03:44:11;3.93;;;3.47;;
8359;SDS011;4217;48.762;11.428;2022-10-16T03:54:12;3.43;;;2.90;;
8359;SDS011;4217;48.762;11.428;2022-10-16T04:04:14;2.90;;;2.70;;
8359;SDS011;4217;48.762;11.428;2022-10-16T04:14:15;3.13;;;2.80;;
8359;SDS011;4217;48.762;11.428;2022-10-16T04:24:17;3.10;;;2.90;;
8359;SDS011;4217;48.762;11.428;2022-10-16T04:34:18;2.47;;;2.20;;
8359;SDS011;4217;48.762;11.428;2022-10-16T04:44:20;3.07;;;2.80;;
8359;SDS011;4217;48.762;11.428;2022-10-16T04:54:21;2.57;;;2.40;;
8359;SDS011;4217;48.762;11.428;2022-10-16T05:04:23;2.63;;;2.43;;
8359;SDS011;4217;48.762;11.428;2022-10-16T05:14:24;2.97;;;2.77;;
8359;SDS011;4217;48.762;11.428;2022-10-16T05:24:26;2.67;;;2.43;;
8359;SDS011;4217;48.762;11.428;2022-10-16T05:34:28;2.30;;;2.20;;
8359;SDS011;4217;48.762;11.428;2022-10-16T05:44:29;2.80;;;2.40;;
8359;SDS011;4217;48.762;11.428;2022-10-16T05:54:31;3.77;;;2.33;;
8359;SDS011;4217;48.762;11.428;2022-10-16T06:04:33;2.50;;;2.20;;
8359;SDS011;4217;48.762;11.428;2022-10-16T06:14:34;2.63;;;2.43;;
8359;SDS011;4217;48.762;11.428;2022-10-16T06:24:36;2.70;;;2.50;;
8359;SDS011;4217;48.762;11.428;2022-10-16T06:34:37;3.07;;;2.13;;
8359;SDS011;4217;48.762;11.428;2022-10-16T06:44:44;2.43;;;2.23;;
8359;SDS011;4217;48.762;11.428;2022-10-16T06:54:46;4.73;;;1.93;;
8359;SDS011;4217;48.762;11.428;2022-10-16T07:04:47;3.50;;;2.03;;
8359;SDS011;4217;48.762;11.428;2022-10-16T07:14:49;2.70;;;2.30;;
8359;SDS011;4217;48.762;11.428;2022-10-16T07:24:53;3.17;;;2.10;;
8359;SDS011;4217;48.762;11.428;2022-10-16T07:34:54;2.00;;;1.90;;
8359;SDS011;4217;48.762;11.428;2022-10-16T07:44:56;3.37;;;1.93;;
8359;SDS011;4217;48.762;11.428;2022-10-16T07:54:58;1.90;;;1.80;;
8359;SDS011;4217;48.762;11.428;2022-10-16T08:04:59;2.53;;;1.70;;
8359;SDS011;4217;48.762;11.428;2022-10-16T08:15:01;2.30;;;2.05;;
8359;SDS011;4217;48.762;11.428;2022-10-16T08:25:02;1.60;;;1.50;;
8359;SDS011;4217;48.762;11.428;2022-10-16T08:35:04;2.75;;;1.52;;
8359;SDS011;4217;48.762;11.428;2022-10-16T09:15:55;2.08;;;1.38;;
8359;SDS011;4217;48.762;11.428;2022-10-16T09:26:11;1.50;;;1.50;;
8359;SDS011;4217;48.762;11.428;2022-10-16T09:36:15;2.10;;;1.90;;
8359;SDS011;4217;48.762;11.428;2022-10-16T09:46:36;1.50;;;1.40;;
8359;SDS011;4217;48.762;11.428;2022-10-16T09:56:41;1.25;;;1.13;;
8359;SDS011;4217;48.762;11.428;2022-10-16T10:06:44;1.90;;;1.80;;
8359;SDS011;4217;48.762;11.428;2022-10-16T10:16:48;1.40;;;1.30;;
8359;SDS011;4217;48.762;11.428;2022-10-16T10:27:10;1.70;;;1.60;;
8359;SDS011;4217;48.762;11.428;2022-10-16T10:48:01;3.25;;;1.65;;
8359;SDS011;4217;48.762;11.428;2022-10-16T11:08:59;1.15;;;1.10;;
8359;SDS011;4217;48.762;11.428;2022-10-16T11:19:12;7.00;;;6.70;;
8359;SDS011;4217;48.762;11.428;2022-10-16T11:29:33;6.95;;;6.65;;
8359;SDS011;4217;48.762;11.428;2022-10-16T11:39:41;8.40;;;8.10;;
8359;SDS011;4217;48.762;11.428;2022-10-16T11:49:46;7.15;;;6.68;;
8359;SDS011;4217;48.762;11.428;2022-10-16T11:59:52;7.55;;;7.25;;
8359;SDS011;4217;48.762;11.428;2022-10-16T12:10:30;7.75;;;7.40;;
8359;SDS011;4217;48.762;11.428;2022-10-16T12:20:39;6.10;;;5.90;;
8359;SDS011;4217;48.762;11.428;2022-10-16T12:30:53;8.88;;;8.50;;
8359;SDS011;4217;48.762;11.428;2022-10-16T12:51:12;7.00;;;6.47;;
8359;SDS011;4217;48.762;11.428;2022-10-16T13:22:21;13.93;;;13.43;;
8359;SDS011;4217;48.762;11.428;2022-10-16T13:32:29;11.90;;;11.40;;
8359;SDS011;4217;48.762;11.428;2022-10-16T13:42:32;9.77;;;9.33;;
8359;SDS011;4217;48.762;11.428;2022-10-16T13:52:34;11.87;;;11.47;;
8359;SDS011;4217;48.762;11.428;2022-10-16T14:02:37;9.70;;;9.40;;
8359;SDS011;4217;48.762;11.428;2022-10-16T14:12:41;11.43;;;11.03;;
8359;SDS011;4217;48.762;11.428;2022-10-16T14:22:43;13.43;;;12.87;;
8359;SDS011;4217;48.762;11.428;2022-10-16T14:32:57;14.20;;;13.70;;
8359;SDS011;4217;48.762;11.428;2022-10-16T14:43:01;15.47;;;14.87;;
8359;SDS011;4217;48.762;11.428;2022-10-16T14:53:08;15.10;;;14.50;;
8359;SDS011;4217;48.762;11.428;2022-10-16T15:03:13;14.83;;;14.33;;
8359;SDS011;4217;48.762;11.428;2022-10-16T15:13:16;6.07;;;5.87;;
8359;SDS011;4217;48.762;11.428;2022-10-16T15:23:19;6.37;;;6.07;;
8359;SDS011;4217;48.762;11.428;2022-10-16T15:33:23;7.07;;;6.67;;
8359;SDS011;4217;48.762;11.428;2022-10-16T15:43:28;15.03;;;14.33;;
8359;SDS011;4217;48.762;11.428;2022-10-16T15:53:30;6.73;;;6.43;;
8359;SDS011;4217;48.762;11.428;2022-10-16T16:03:32;17.13;;;16.30;;
8359;SDS011;4217;48.762;11.428;2022-10-16T16:13:34;15.70;;;15.10;;
8359;SDS011;4217;48.762;11.428;2022-10-16T16:23:38;12.90;;;12.30;;
8359;SDS011;4217;48.762;11.428;2022-10-16T16:33:39;12.07;;;11.53;;
8359;SDS011;4217;48.762;11.428;2022-10-16T16:43:41;11.87;;;11.37;;
8359;SDS011;4217;48.762;11.428;2022-10-16T16:53:43;12.97;;;12.47;;
8359;SDS011;4217;48.762;11.428;2022-10-16T17:03:51;11.70;;;11.20;;
8359;SDS011;4217;48.762;11.428;2022-10-16T17:13:55;13.53;;;12.93;;
8359;SDS011;4217;48.762;11.428;2022-10-16T17:23:58;13.93;;;13.20;;
8359;SDS011;4217;48.762;11.428;2022-10-16T17:34:02;14.17;;;13.47;;
8359;SDS011;4217;48.762;11.428;2022-10-16T17:44:06;16.03;;;15.33;;
8359;SDS011;4217;48.762;11.428;2022-10-16T17:54:08;16.60;;;15.70;;
8359;SDS011;4217;48.762;11.428;2022-10-16T18:04:13;17.40;;;16.40;;
8359;SDS011;4217;48.762;11.428;2022-10-16T18:14:16;15.80;;;15.00;;
8359;SDS011;4217;48.762;11.428;2022-10-16T18:24:18;15.40;;;14.60;;
8359;SDS011;4217;48.762;11.428;2022-10-16T18:34:20;13.33;;;12.53;;
8359;SDS011;4217;48.762;11.428;2022-10-16T18:44:21;14.43;;;13.77;;
8359;SDS011;4217;48.762;11.428;2022-10-16T18:54:23;13.17;;;12.60;;
8359;SDS011;4217;48.762;11.428;2022-10-16T19:04:25;12.80;;;12.20;;
8359;SDS011;4217;48.762;11.428;2022-10-16T19:14:28;10.73;;;10.23;;
8359;SDS011;4217;48.762;11.428;2022-10-16T19:24:30;7.47;;;6.97;;
8359;SDS011;4217;48.762;11.428;2022-10-16T19:34:31;11.73;;;11.03;;
8359;SDS011;4217;48.762;11.428;2022-10-16T19:44:34;6.13;;;5.73;;
8359;SDS011;4217;48.762;11.428;2022-10-16T19:54:35;5.53;;;5.13;;
8359;SDS011;4217;48.762;11.428;2022-10-16T20:04:39;5.10;;;4.80;;
8359;SDS011;4217;48.762;11.428;2022-10-16T20:14:40;5.20;;;4.80;;
8359;SDS011;4217;48.762;11.428;2022-10-16T20:24:42;5.67;;;5.27;;
8359;SDS011;4217;48.762;11.428;2022-10-16T20:34:43;4.83;;;4.53;;
8359;SDS011;4217;48.762;11.428;2022-10-16T20:44:49;5.03;;;4.53;;
8359;SDS011;4217;48.762;11.428;2022-10-16T20:54:51;5.37;;;5.07;;
8359;SDS011;4217;48.762;11.428;2022-10-16T21:04:53;4.97;;;4.53;;
8359;SDS011;4217;48.762;11.428;2022-10-16T21:14:54;5.80;;;5.33;;
8359;SDS011;4217;48.762;11.428;2022-10-16T21:25:14;6.43;;;6.03;;
8359;SDS011;4217;48.762;11.428;2022-10-16T21:35:16;5.97;;;5.57;;
8359;SDS011;4217;48.762;11.428;2022-10-16T21:45:18;5.37;;;4.97;;
8359;SDS011;4217;48.762;11.428;2022-10-16T21:55:19;10.90;;;10.27;;
8359;SDS011;4217;48.762;11.428;2022-10-16T22:05:20;8.23;;;7.83;;
8359;SDS011;4217;48.762;11.428;2022-10-16T22:15:22;7.50;;;6.87;;
8359;SDS011;4217;48.762;11.428;2022-10-16T22:25:28;11.70;;;11.10;;
8359;SDS011;4217;48.762;11.428;2022-10-16T22:35:30;14.37;;;13.67;;
8359;SDS011;4217;48.762;11.428;2022-10-16T22:45:35;14.17;;;13.47;;
8359;SDS011;4217;48.762;11.428;2022-10-16T22:55:37;14.33;;;13.57;;
8359;SDS011;4217;48.762;11.428;2022-10-16T23:05:42;13.53;;;12.73;;
8359;SDS011;4217;48.762;11.428;2022-10-16T23:15:43;12.57;;;11.87;;
8359;SDS011;4217;48.762;11.428;2022-10-16T23:25:45;13.67;;;12.80;;
8359;SDS011;4217;48.762;11.428;2022-10-16T23:35:47;11.33;;;10.63;;
8359;SDS011;4217;48.762;11.428;2022-10-16T23:45:48;7.80;;;7.30;;
8359;SDS011;4217;48.762;11.428;2022-10-16T23:55:50;8.37;;;7.87;;
